Terminal Aerodrome Forecast
Issued by NWS

Home | Current Version | Previous Version | Text Only | Print | Product List | Glossary On
Versions: 1 2 3 4 5 6 7 8 9 10 11 12 13 14 15 16 17 18 19 20 21 22 23 24 25
000
FTUS43 KGRB 310300 AAA
TAFMTW
TAF AMD
KMTW 310336Z 3104/3124 33003KT P6SM BKN015 BKN040
      TEMPO 3104/3106 4SM BR SCT015
     FM310800 VRB03KT 3SM BR BKN010
      TEMPO 3108/3112 1 1/2SM BR
     FM311300 VRB03KT 5SM BR BKN015
     FM311700 17005KT P6SM SCT025=

USA.gov is the U.S. government's official web portal to all federal, state and local government web resources and services.